Andrew, Illinois
Current Conditions -  °F | °C
As of 2:52 AM on Saturday 25 Oct 2014 (Local Time) from KSPI Reporting Station
Few Clouds Few Clouds  
Wind Chill: 14°   Ceiling: Unl
Heat Index: 14°   Visibility: 10mi
Dew Point: 11°   Wind: 3mph
Humidity: 81%   Direction: 230°SW
Pressure: 29.96"   Gusts: NA
Location:  39.854°N, 89.6295°W
Report Text: KSPI 250752Z AUTO 23003KT 10SM FEW037 14/11 A2996 RMK AO2 SLP144 T01390106
Loading
Personal Weather Stations






























Interactive Weather Map
Tropical Storm Tracking
New forecast layout! Learn more

10-Day Weather Forecast

Advertisements
Track Severe Weather on mobile